Time;durP1;ratioP1;P1;durP2;ratioP2;P2;SDS_P1;SDS_P2;PMS_P1;PMS_P2;Temp;Humidity;BMP_temperature;BMP_pressure;BME280_temperature;BME280_humidity;BME280_pressure;Samples;Min_cycle;Max_cycle;Signal;HPM_P1;HPM_P2
2022/06/18 00:03:02;;;;;;;3.67;2.42;;;24.00;35.20;;;22.29;36.36;101595.91;12241055;19;20017;-80
2022/06/18 00:07:12;;;;;;;2.92;2.30;;;24.10;35.40;;;22.12;36.49;101562.00;12238569;19;20035;-80
2022/06/18 00:15:38;;;;;;;3.88;2.60;;;24.00;35.40;;;22.08;36.80;101575.53;12235444;19;20509;-81
2022/06/18 00:19:39;;;;;;;3.08;2.13;;;23.70;35.30;;;21.96;36.66;101557.22;12240137;19;20022;-80
2022/06/18 00:23:41;;;;;;;2.13;1.92;;;24.00;35.50;;;22.10;36.78;101573.59;12241734;19;20027;-80
2022/06/18 00:27:43;;;;;;;2.47;2.03;;;23.90;35.50;;;22.10;36.87;101588.72;12235890;19;20381;-80
2022/06/18 00:31:45;;;;;;;3.33;1.80;;;23.80;35.50;;;22.13;36.92;101603.56;12241048;19;20173;-80
2022/06/18 00:35:49;;;;;;;3.67;1.50;;;23.80;35.80;;;21.84;37.19;101580.41;12235860;19;20082;-80
2022/06/18 00:39:51;;;;;;;8.15;1.60;;;23.70;35.80;;;21.54;37.23;101536.97;12238662;19;20030;-80
2022/06/18 00:44:20;;;;;;;2.17;1.63;;;23.60;35.70;;;21.70;37.87;101576.34;12237315;19;20031;-80
2022/06/18 00:48:52;;;;;;;1.42;1.33;;;23.70;36.00;;;21.61;37.74;101570.03;12232827;19;20014;-80
2022/06/18 00:53:18;;;;;;;1.60;1.50;;;23.30;35.80;;;21.62;37.63;101582.31;12238181;19;20027;-80
2022/06/18 00:57:42;;;;;;;1.90;1.70;;;23.30;35.90;;;21.51;37.98;101563.84;12237084;19;20014;-80
2022/06/18 01:01:48;;;;;;;1.65;1.55;;;23.20;36.10;;;21.48;37.85;101566.75;12237369;19;20014;-80
2022/06/18 01:05:52;;;;;;;3.88;2.42;;;23.20;36.20;;;21.48;37.55;101564.09;12231127;19;20093;-80
2022/06/18 01:09:54;;;;;;;5.35;2.45;;;23.10;36.10;;;21.30;37.90;101539.13;12237238;19;20369;-80
2022/06/18 01:14:01;;;;;;;5.32;2.72;;;23.10;36.20;;;21.23;37.85;101541.47;12237289;19;20039;-81
2022/06/18 01:18:06;;;;;;;5.47;3.50;;;23.00;36.20;;;21.19;38.41;101548.03;12231160;19;20033;-80
2022/06/18 01:23:03;;;;;;;5.53;3.35;;;23.00;36.40;;;21.20;38.16;101544.41;12235982;19;20010;-80
2022/06/18 01:27:09;;;;;;;4.72;3.38;;;22.90;36.50;;;21.13;38.11;101545.91;12235212;19;20018;-80
2022/06/18 01:31:11;;;;;;;4.82;3.38;;;22.90;36.50;;;21.10;38.37;101539.03;12238121;19;20022;-80
2022/06/18 01:35:13;;;;;;;6.32;2.80;;;22.80;36.60;;;21.07;38.20;101531.34;12246763;19;20078;-80
2022/06/18 01:39:36;;;;;;;3.55;2.38;;;22.80;36.60;;;20.98;38.57;101524.16;12249764;19;20026;-80
2022/06/18 01:43:38;;;;;;;7.13;2.95;;;22.70;36.80;;;21.04;38.75;101536.94;12247880;19;20468;-80
2022/06/18 01:47:53;;;;;;;3.00;2.47;;;22.70;36.80;;;20.67;38.59;101473.72;12244811;19;20782;-80
2022/06/18 01:52:01;;;;;;;5.53;2.13;;;22.70;36.80;;;20.96;38.68;101524.31;12248702;19;20479;-80
2022/06/18 01:56:21;;;;;;;2.63;1.85;;;22.70;36.80;;;20.84;39.01;101496.16;12243194;19;20019;-80
2022/06/18 02:00:26;;;;;;;1.75;1.63;;;22.60;36.80;;;20.83;38.62;101491.00;12248335;19;20035;-80
2022/06/18 02:04:36;;;;;;;8.02;2.15;;;22.60;36.70;;;20.76;38.88;101485.34;12245716;19;20057;-80
2022/06/18 02:08:38;;;;;;;2.15;1.70;;;22.50;36.70;;;20.67;39.09;101468.41;12248391;19;20018;-80
2022/06/18 02:12:41;;;;;;;1.73;1.63;;;22.50;36.80;;;20.72;39.05;101483.94;12245154;19;20508;-80
2022/06/18 02:16:46;;;;;;;1.70;1.60;;;22.50;36.90;;;20.73;39.26;101491.75;12243537;19;20020;-80
2022/06/18 02:20:54;;;;;;;1.98;1.80;;;22.60;37.10;;;20.74;39.30;101482.84;12247188;19;20026;-80
2022/06/18 02:24:57;;;;;;;2.42;1.52;;;22.50;37.20;;;20.71;38.95;101477.81;12243908;19;20034;-80
2022/06/18 02:28:59;;;;;;;1.80;1.70;;;22.40;37.10;;;20.68;39.13;101471.91;12246429;19;20006;-80
2022/06/18 02:33:50;;;;;;;1.45;1.35;;;22.40;37.20;;;20.63;39.65;101467.00;12245246;19;19998;-80
2022/06/18 02:37:54;;;;;;;1.70;1.60;;;22.40;37.40;;;20.57;39.32;101475.47;12241467;19;20010;-80
2022/06/18 02:42:08;;;;;;;1.63;1.52;;;22.50;37.30;;;20.48;39.91;101462.97;12244567;19;20104;-84
2022/06/18 02:46:12;;;;;;;2.92;1.42;;;22.30;37.50;;;20.39;39.50;101463.75;12242026;19;20359;-80
2022/06/18 02:50:18;;;;;;;5.28;1.50;;;22.20;37.30;;;20.43;39.76;101470.47;12246251;19;20015;-80
2022/06/18 02:54:19;;;;;;;;;;;22.20;37.40;;;20.42;39.13;101458.19;12243299;19;20461;-80
2022/06/18 02:58:27;;;;;;;3.13;1.48;;;22.20;36.80;;;20.32;39.49;101445.69;12241515;19;19915;-80
2022/06/18 03:02:29;;;;;;;1.95;1.48;;;22.20;37.50;;;20.33;39.71;101455.38;12244539;19;20033;-80
2022/06/18 03:06:33;;;;;;;2.15;1.85;;;22.20;37.60;;;19.96;40.00;101399.28;12240370;19;20078;-81
2022/06/18 03:14:55;;;;;;;2.10;1.90;;;22.00;37.80;;;20.18;39.85;101451.34;12240398;19;20089;-80
2022/06/18 03:18:59;;;;;;;2.03;1.92;;;22.00;37.90;;;20.05;40.23;101446.22;12242352;19;20010;-80
2022/06/18 03:23:01;;;;;;;1.63;1.48;;;21.90;37.90;;;20.01;40.09;101436.00;12242170;19;20022;-80
2022/06/18 03:27:03;;;;;;;3.00;1.60;;;21.90;38.00;;;19.78;40.54;101404.31;12241182;19;20006;-80
2022/06/18 03:31:06;;;;;;;1.30;1.30;;;21.80;38.10;;;19.94;40.30;101432.19;12242718;19;20010;-80
2022/06/18 03:35:08;;;;;;;4.57;1.50;;;21.80;38.30;;;19.71;40.61;101413.72;12241732;19;20014;-80
2022/06/18 03:39:11;;;;;;;2.10;1.73;;;21.70;38.40;;;19.77;41.11;101439.75;12243282;19;20014;-80
2022/06/18 03:43:14;;;;;;;1.95;1.80;;;21.60;38.70;;;19.51;40.86;101394.16;12240687;19;20014;-80
2022/06/18 03:47:16;;;;;;;1.73;1.63;;;21.50;38.70;;;19.65;41.02;101427.47;12237566;19;20014;-80
2022/06/18 03:51:18;;;;;;;2.75;1.80;;;21.70;38.80;;;19.58;41.59;101405.09;12239998;19;20014;-80
2022/06/18 03:55:21;;;;;;;1.65;1.55;;;21.50;39.00;;;19.51;41.53;101386.19;12234845;19;20048;-80
2022/06/18 03:59:23;;;;;;;2.42;1.80;;;21.40;39.10;;;19.52;41.43;101401.13;12241266;19;20034;-80
2022/06/18 04:03:28;;;;;;;1.65;1.55;;;21.40;39.20;;;19.47;41.35;101384.78;12241119;19;20018;-80
2022/06/18 04:07:31;;;;;;;1.90;1.80;;;21.40;39.20;;;19.51;41.74;101396.81;12238494;19;20439;-80
2022/06/18 04:11:51;;;;;;;1.70;1.60;;;21.40;39.30;;;19.55;41.70;101406.19;12231497;19;20018;-80
2022/06/18 04:15:53;;;;;;;2.13;1.90;;;21.30;39.40;;;19.41;41.69;101382.63;12226178;19;20014;-80
2022/06/18 04:20:03;;;;;;;3.25;1.95;;;21.30;39.50;;;19.42;42.12;101373.72;12239734;19;20010;-80
2022/06/18 04:24:06;;;;;;;6.18;2.10;;;21.30;39.60;;;19.40;42.22;101370.34;12235630;19;20139;-80
2022/06/18 04:28:13;;;;;;;1.90;1.77;;;21.30;39.70;;;19.59;42.33;101377.63;12236270;19;20006;-79
2022/06/18 04:32:18;;;;;;;1.77;1.67;;;21.30;39.80;;;19.63;42.25;101379.03;12238573;19;20480;-80
2022/06/18 04:36:41;;;;;;;2.38;1.63;;;21.40;39.80;;;19.74;42.34;101379.03;12234558;19;20017;-80
2022/06/18 04:40:47;;;;;;;2.22;1.50;;;21.40;40.10;;;19.65;42.22;101346.16;12237094;19;20018;-80
2022/06/18 04:44:53;;;;;;;1.75;1.65;;;21.40;40.10;;;19.78;42.14;101364.53;12237719;19;20475;-80
2022/06/18 04:49:03;;;;;;;3.95;1.60;;;21.50;40.10;;;19.93;42.50;101350.97;12236505;19;20034;-80
2022/06/18 04:53:07;;;;;;;1.38;1.27;;;21.80;40.40;;;20.07;42.45;101345.34;12237044;19;20021;-80
2022/06/18 04:57:10;;;;;;;1.50;1.40;;;21.70;40.40;;;20.21;42.09;101339.69;12235184;19;20081;-82
2022/06/18 05:01:19;;;;;;;1.60;1.50;;;21.80;40.20;;;20.42;42.36;101322.91;12235778;19;20053;-78
2022/06/18 05:05:39;;;;;;;1.65;1.55;;;22.00;39.80;;;20.74;41.91;101336.84;12239389;19;20022;-78
2022/06/18 05:10:08;;;;;;;1.40;1.30;;;22.20;39.70;;;20.96;41.84;101324.31;12252231;19;20015;-77
2022/06/18 05:14:24;;;;;;;2.97;1.50;;;22.40;39.40;;;21.14;41.54;101319.16;12250233;19;20007;-78
2022/06/18 05:18:35;;;;;;;1.48;1.38;;;22.60;39.10;;;21.45;41.47;101335.84;12246755;19;20376;-78
2022/06/18 05:22:37;;;;;;;1.55;0.95;;;22.80;39.10;;;21.62;41.17;101321.00;12251995;19;20006;-78
2022/06/18 05:26:50;;;;;;;1.27;1.02;;;23.20;39.10;;;21.85;41.07;101310.88;12244971;19;20023;-78
2022/06/18 05:30:52;;;;;;;1.70;1.20;;;23.30;39.00;;;21.91;41.35;101286.38;12249302;19;20371;-78
2022/06/18 05:34:55;;;;;;;2.17;1.40;;;23.60;38.90;;;22.41;41.13;101320.63;12245668;19;20082;-78
2022/06/18 05:38:59;;;;;;;1.80;1.30;;;23.90;38.70;;;22.58;40.98;101302.22;12249107;19;20471;-78
2022/06/18 05:43:01;;;;;;;5.68;0.90;;;24.00;38.10;;;22.86;40.43;101306.50;12246949;19;20728;-79
2022/06/18 05:47:22;;;;;;;1.30;1.20;;;24.30;38.20;;;22.88;40.22;101258.44;12244742;19;20082;-77
2022/06/18 05:51:24;;;;;;;1.10;1.00;;;24.70;37.90;;;23.39;40.15;101296.88;12250354;19;20086;-78
2022/06/18 05:55:26;;;;;;;1.02;0.93;;;24.80;37.50;;;23.72;39.96;101303.31;12243362;19;20029;-78
2022/06/18 05:59:46;;;;;;;1.23;1.13;;;25.00;37.40;;;23.99;39.80;101285.47;12248795;19;20589;-78
2022/06/18 06:03:48;;;;;;;2.85;1.00;;;25.30;37.10;;;24.14;39.55;101267.88;12249399;19;20018;-77
2022/06/18 06:07:50;;;;;;;2.58;1.02;;;25.80;37.20;;;24.56;39.52;101288.41;12244562;19;20349;-77
2022/06/18 06:11:52;;;;;;;3.75;1.05;;;25.90;37.00;;;24.62;39.41;101254.84;12247536;19;20006;-78
2022/06/18 06:15:55;;;;;;;0.88;0.88;;;26.10;36.80;;;25.25;38.69;101312.25;12242003;19;20015;-78
2022/06/18 06:20:24;;;;;;;2.83;0.70;;;26.50;36.60;;;25.44;38.81;101285.19;12246757;19;20014;-78
2022/06/18 06:24:26;;;;;;;0.73;0.73;;;26.70;36.50;;;25.78;38.56;101302.84;12246238;19;20022;-78
2022/06/18 06:28:29;;;;;;;0.80;0.80;;;27.00;36.00;;;25.91;38.07;101276.44;12240666;19;20018;-78
2022/06/18 06:32:31;;;;;;;1.17;1.00;;;27.30;35.90;;;26.11;37.87;101276.84;12245776;19;20429;-78
2022/06/18 06:36:33;;;;;;;1.10;0.93;;;27.40;35.60;;;26.37;37.97;101294.50;12243287;19;20023;-78
2022/06/18 06:40:36;;;;;;;2.42;0.85;;;27.80;35.50;;;26.55;37.22;101283.56;12245741;19;20096;-78
2022/06/18 06:44:38;;;;;;;1.25;0.90;;;27.90;35.30;;;26.67;36.94;101272.25;12245049;19;20074;-78
2022/06/18 06:48:40;;;;;;;2.22;0.70;;;28.10;35.40;;;26.84;37.28;101286.41;12244995;19;20383;-78
2022/06/18 06:52:43;;;;;;;0.80;0.80;;;28.30;35.10;;;27.06;36.85;101283.91;12244558;19;20010;-78
2022/06/18 07:01:05;;;;;;;0.68;0.68;;;28.50;34.80;;;27.37;36.70;101257.00;12245212;19;20014;-78
2022/06/18 07:05:07;;;;;;;1.35;0.75;;;28.70;34.60;;;27.51;36.04;101256.19;12244329;19;20015;-79
2022/06/18 07:09:09;;;;;;;0.70;0.70;;;28.90;34.50;;;27.68;36.21;101254.19;12242261;19;20788;-78
2022/06/18 07:13:11;;;;;;;0.90;0.85;;;29.10;34.40;;;27.90;36.03;101243.59;12243202;19;20014;-78
2022/06/18 07:17:19;;;;;;;5.82;1.20;;;29.20;34.40;;;28.09;35.95;101234.94;12228454;19;20489;-78
2022/06/18 07:21:24;;;;;;;1.02;0.95;;;29.40;34.50;;;28.43;35.55;101247.75;12244618;19;20021;-79
2022/06/18 07:25:25;;;;;;;0.70;0.70;;;29.70;34.20;;;28.62;35.50;101235.56;12242918;19;20011;-78
2022/06/18 07:29:27;;;;;;;6.63;0.90;;;29.90;34.10;;;28.79;35.13;101235.34;12241985;19;20019;-78
2022/06/18 07:33:33;;;;;;;1.42;0.82;;;30.10;33.80;;;28.83;35.18;101215.09;12245272;19;20018;-78
2022/06/18 07:37:34;;;;;;;0.85;0.63;;;30.30;33.80;;;29.20;34.72;101237.38;12238363;19;20017;-78
2022/06/18 07:41:43;;;;;;;0.80;0.70;;;30.50;33.50;;;29.14;34.46;101195.94;12239034;19;20013;-78
2022/06/18 07:45:46;;;;;;;0.77;0.77;;;30.60;33.40;;;29.57;34.52;101233.50;12237199;19;20082;-78
2022/06/18 07:49:47;;;;;;;2.88;0.98;;;30.80;33.50;;;29.77;34.28;101228.25;12242497;19;20445;-78
2022/06/18 07:53:50;;;;;;;1.75;0.80;;;31.00;33.10;;;29.76;34.05;101205.06;12239717;19;20022;-79
2022/06/18 07:57:52;;;;;;;3.90;1.00;;;31.20;32.90;;;29.96;33.74;101205.13;12234785;19;20014;-78
2022/06/18 08:01:54;;;;;;;0.80;0.80;;;31.50;33.10;;;29.93;33.91;101163.28;12241191;19;20359;-78
2022/06/18 08:05:55;;;;;;;2.97;1.00;;;31.80;33.10;;;30.30;33.59;101206.09;12238452;19;20014;-78
2022/06/18 08:09:57;;;;;;;1.77;0.95;;;31.70;32.70;;;30.43;33.69;101204.28;12237391;19;20361;-78
2022/06/18 08:13:59;;;;;;;0.93;0.80;;;31.80;33.10;;;30.56;33.08;101199.94;12239429;19;20006;-78
2022/06/18 08:18:01;;;;;;;1.50;1.00;;;31.90;32.30;;;30.62;33.23;101183.78;12236824;19;20389;-78
2022/06/18 08:22:03;;;;;;;0.93;0.93;;;32.10;32.50;;;30.93;32.75;101189.63;12239126;19;20023;-79
2022/06/18 08:26:06;;;;;;;0.90;0.90;;;32.20;32.40;;;31.13;32.69;101189.63;12235499;19;20021;-80
2022/06/18 08:30:09;;;;;;;0.80;0.80;;;32.40;32.30;;;31.24;32.74;101179.00;12236964;19;20018;-79
2022/06/18 08:34:12;;;;;;;5.63;0.90;;;32.60;32.30;;;31.42;32.10;101167.59;12238893;19;20036;-79
2022/06/18 08:38:15;;;;;;;1.30;0.98;;;32.70;31.90;;;31.41;31.94;101133.53;12232875;19;20036;-79
2022/06/18 08:42:25;;;;;;;1.67;1.20;;;32.90;31.60;;;31.80;31.87;101168.69;12237799;19;20495;-79
2022/06/18 08:46:44;;;;;;;1.10;1.10;;;33.00;31.70;;;31.95;31.75;101177.41;12238425;19;20472;-79
2022/06/18 08:50:48;;;;;;;1.38;1.10;;;33.10;31.70;;;32.07;31.64;101162.16;12237586;19;20010;-79
2022/06/18 08:55:24;;;;;;;2.33;1.20;;;33.30;31.50;;;32.32;31.33;101167.59;12236147;19;20015;-79
2022/06/18 09:00:13;;;;;;;0.98;0.93;;;33.50;31.50;;;32.51;31.13;101160.44;12237377;19;20275;-78
2022/06/18 09:04:31;;;;;;;1.02;0.77;;;33.70;31.30;;;32.66;31.20;101156.59;12237188;19;20015;-79
2022/06/18 09:08:59;;;;;;;2.03;0.75;;;33.90;31.30;;;32.81;30.65;101143.53;12232418;19;20078;-78
2022/06/18 09:13:46;;;;;;;0.85;0.85;;;34.00;31.10;;;33.02;30.60;101139.63;12234782;19;20499;-79
2022/06/18 09:18:00;;;;;;;3.65;1.20;;;34.20;31.00;;;33.17;30.32;101133.88;12234838;19;20003;-78
2022/06/18 09:22:09;;;;;;;1.30;1.00;;;34.30;30.90;;;33.10;30.09;101119.59;12233289;19;20349;-78
2022/06/18 09:26:23;;;;;;;4.13;1.45;;;34.50;30.80;;;33.27;30.29;101117.94;12215384;19;20378;-80
2022/06/18 09:31:06;;;;;;;1.15;1.00;;;34.60;30.60;;;33.42;29.93;101126.50;12231480;19;20351;-78
2022/06/18 09:35:22;;;;;;;3.22;1.00;;;34.70;30.80;;;33.58;29.78;101133.22;12224863;19;20082;-77
2022/06/18 09:39:35;;;;;;;3.25;1.00;;;34.80;30.60;;;33.65;29.64;101114.19;12228887;19;20027;-79
2022/06/18 09:44:06;;;;;;;2.05;1.10;;;34.90;30.50;;;33.82;29.13;101119.78;12230014;19;20018;-80
2022/06/18 09:48:09;;;;;;;1.08;1.02;;;35.00;30.40;;;33.89;29.09;101107.81;12201447;19;20019;-79
2022/06/18 09:52:31;;;;;;;1.48;1.00;;;35.20;30.40;;;34.04;28.95;101114.69;12215099;19;20013;-78
2022/06/18 09:56:47;;;;;;;4.47;1.15;;;35.20;30.10;;;34.05;29.20;101106.38;12223419;19;20022;-79
2022/06/18 10:00:53;;;;;;;2.30;1.13;;;35.30;30.10;;;34.15;29.04;101097.66;12229090;19;20010;-78
2022/06/18 10:09:33;;;;;;;1.10;1.10;;;35.50;30.10;;;34.40;28.57;101085.78;12233469;19;20629;-77
2022/06/18 10:14:02;;;;;;;1.35;1.00;;;35.60;30.00;;;34.55;28.45;101099.72;12228469;19;20042;-78
2022/06/18 10:18:41;;;;;;;2.80;1.20;;;35.70;30.20;;;34.67;28.49;101087.00;12226321;19;20379;-77
2022/06/18 10:23:21;;;;;;;0.85;0.85;;;35.80;30.00;;;34.86;28.24;101097.72;12227502;19;20124;-80
2022/06/18 10:27:59;;;;;;;1.10;1.00;;;36.00;29.90;;;34.95;28.20;101083.56;12229552;19;20014;-77
2022/06/18 10:32:29;;;;;;;0.88;0.85;;;36.10;30.00;;;35.11;27.83;101082.06;12229394;19;20490;-80
2022/06/18 10:36:45;;;;;;;3.55;1.17;;;36.20;30.00;;;35.21;27.90;101074.13;12226109;19;20026;-77
2022/06/18 10:41:19;;;;;;;1.63;1.40;;;36.30;29.70;;;35.32;27.73;101085.16;12226690;19;20010;-79
2022/06/18 10:45:45;;;;;;;1.38;1.05;;;36.40;29.90;;;35.39;27.69;101066.84;12242808;19;20022;-77
2022/06/18 10:50:08;;;;;;;2.28;1.20;;;36.50;30.00;;;35.22;27.53;101031.50;12242987;19;20017;-81
2022/06/18 10:54:10;;;;;;;1.50;1.00;;;36.60;29.70;;;35.35;27.64;101024.94;12243685;19;20074;-78
2022/06/18 10:58:15;;;;;;;3.13;1.50;;;36.70;29.60;;;35.51;27.34;101016.00;12224942;19;20020;-78
2022/06/18 11:02:37;;;;;;;1.25;1.15;;;36.80;29.60;;;35.86;26.90;101058.50;12243223;19;20480;-79
2022/06/18 11:06:46;;;;;;;3.17;0.88;;;36.90;29.50;;;35.87;26.79;101030.28;12234227;19;20046;-80
2022/06/18 11:10:57;;;;;;;1.45;1.00;;;37.10;29.60;;;35.84;26.66;101026.16;12241489;19;20009;-79
2022/06/18 11:14:59;;;;;;;2.28;1.08;;;37.30;29.40;;;35.86;27.07;101028.59;12239792;19;20468;-79
2022/06/18 11:19:14;;;;;;;1.27;1.17;;;37.20;29.30;;;36.01;26.80;101036.22;12238750;19;20014;-78
2022/06/18 11:23:16;;;;;;;;;;;37.20;29.40;;;36.06;27.22;101039.88;12240964;19;20426;-78
2022/06/18 11:27:18;;;;;;;1.42;1.00;;;37.30;30.00;;;35.89;26.73;101000.97;12240550;19;19912;-79
2022/06/18 11:31:28;;;;;;;2.00;1.20;;;37.40;29.50;;;36.05;26.59;101010.16;12241998;19;20449;-79
2022/06/18 11:35:37;;;;;;;2.97;1.23;;;37.30;29.30;;;36.19;26.32;101011.53;12221351;19;20010;-79
2022/06/18 11:39:40;;;;;;;2.97;1.33;;;37.40;29.40;;;36.32;26.57;101034.81;12225413;19;20019;-79
2022/06/18 11:44:01;;;;;;;0.93;0.93;;;37.40;29.20;;;36.08;26.10;100985.25;12227627;19;20038;-78
2022/06/18 11:48:14;;;;;;;1.42;1.20;;;37.50;29.30;;;36.23;25.93;100999.06;12222513;19;20018;-78
2022/06/18 11:52:38;;;;;;;1.13;1.10;;;37.50;28.80;;;36.47;25.86;101023.34;12223143;19;20035;-79
2022/06/18 11:56:59;;;;;;;3.13;1.40;;;37.60;29.00;;;36.32;25.70;100978.53;12221772;19;21220;-78
2022/06/18 12:01:16;;;;;;;3.25;1.30;;;37.70;29.00;;;36.65;25.37;101014.13;12224100;19;20023;-78
2022/06/18 12:05:40;;;;;;;5.10;1.35;;;37.80;28.70;;;36.73;25.17;101005.53;12225443;19;20046;-79
2022/06/18 12:09:42;;;;;;;4.50;1.40;;;37.80;28.90;;;36.68;25.37;101011.72;12225084;19;20015;-78
2022/06/18 12:13:48;;;;;;;4.72;1.50;;;37.90;28.70;;;36.75;25.01;101008.78;12223239;19;20039;-78
2022/06/18 12:18:12;;;;;;;2.63;1.55;;;37.90;28.50;;;36.73;25.14;100989.19;12217529;19;20022;-78
2022/06/18 12:22:58;;;;;;;2.33;1.33;;;37.90;28.50;;;36.81;25.53;100999.63;12223987;19;20069;-78
2022/06/18 12:27:23;;;;;;;3.22;1.48;;;37.90;28.90;;;36.78;25.08;100975.63;12222290;19;20010;-78
2022/06/18 12:31:46;;;;;;;;;;;38.00;28.70;;;36.86;25.96;100967.03;12223885;19;20018;-78
2022/06/18 12:36:09;;;;;;;1.90;1.10;;;38.00;29.40;;;36.93;25.19;100964.09;12222797;19;19922;-78
2022/06/18 12:40:33;;;;;;;3.17;1.35;;;38.00;28.80;;;37.04;25.04;100962.34;12222532;19;20101;-77
2022/06/18 12:44:58;;;;;;;2.43;1.20;;;38.10;28.40;;;37.02;24.65;100939.97;12221071;19;20029;-78
2022/06/18 12:49:24;;;;;;;1.90;1.17;;;38.20;28.40;;;37.04;24.77;100946.00;12220324;19;20628;-77
2022/06/18 12:53:40;;;;;;;3.83;1.58;;;38.20;28.50;;;37.10;24.42;100956.69;12223826;19;20040;-77
2022/06/18 12:58:09;;;;;;;5.90;1.80;;;38.20;28.30;;;37.15;24.77;100967.63;12220321;19;20022;-77
2022/06/18 13:02:48;;;;;;;1.88;1.52;;;38.20;28.30;;;37.16;24.18;100938.50;12221739;19;20018;-78
2022/06/18 13:07:03;;;;;;;11.35;2.60;;;38.30;28.30;;;37.26;24.46;100941.34;12217879;19;20775;-77
2022/06/18 13:11:34;;;;;;;5.47;1.88;;;38.40;28.40;;;37.30;24.40;100950.66;12222990;19;20034;-78
2022/06/18 13:15:51;;;;;;;7.35;1.80;;;38.30;28.40;;;37.23;24.10;100939.13;12216772;19;20022;-79
2022/06/18 13:20:21;;;;;;;3.60;1.60;;;38.40;28.10;;;37.33;24.27;100944.69;12207924;19;20018;-78
2022/06/18 13:29:36;;;;;;;7.82;2.78;;;38.50;28.30;;;37.47;24.18;100931.44;12217889;19;20249;-78
2022/06/18 13:34:02;;;;;;;5.80;2.85;;;38.50;28.50;;;37.50;23.86;100928.22;12223015;19;20018;-78
2022/06/18 13:38:49;;;;;;;8.70;5.00;;;38.60;28.20;;;37.48;23.88;100927.63;12220301;19;20014;-77
2022/06/18 13:43:09;;;;;;;6.50;3.95;;;38.60;28.10;;;37.43;23.45;100931.16;12226195;19;20014;-78
2022/06/18 13:47:42;;;;;;;11.57;3.10;;;38.60;28.00;;;37.43;23.62;100928.44;12219471;19;20042;-77
2022/06/18 13:51:54;;;;;;;5.40;2.70;;;38.60;27.80;;;37.39;23.65;100938.19;12222769;19;20015;-77
2022/06/18 13:55:56;;;;;;;8.32;2.10;;;38.50;27.90;;;37.37;23.73;100918.53;12218641;19;20030;-78
2022/06/18 14:00:04;;;;;;;5.30;3.42;;;38.50;27.80;;;37.36;23.57;100916.91;12226738;19;20101;-78
2022/06/18 14:04:35;;;;;;;6.32;2.03;;;38.50;27.90;;;37.46;23.59;100920.78;12230402;19;20125;-77
2022/06/18 14:08:46;;;;;;;3.22;2.00;;;38.50;27.90;;;37.43;23.19;100912.09;12223410;19;20122;-77
2022/06/18 14:13:06;;;;;;;2.97;1.67;;;38.50;27.80;;;37.27;23.21;100880.34;12230038;19;20050;-78
2022/06/18 14:17:11;;;;;;;5.28;1.70;;;38.50;27.80;;;37.40;23.53;100906.31;12227512;19;20025;-78
2022/06/18 14:21:25;;;;;;;5.18;1.67;;;38.50;27.90;;;37.40;23.65;100900.84;12236819;19;20010;-79
2022/06/18 14:25:28;;;;;;;3.63;1.50;;;38.50;27.90;;;37.42;23.43;100904.97;12239332;19;20044;-79
2022/06/18 14:29:39;;;;;;;7.03;2.55;;;38.50;27.90;;;37.44;23.53;100885.66;12239862;19;20031;-78
2022/06/18 14:34:22;;;;;;;5.80;2.05;;;38.50;27.80;;;37.27;23.48;100861.25;12240738;19;20043;-78
2022/06/18 14:38:24;;;;;;;4.57;1.80;;;38.50;27.90;;;37.37;23.27;100871.41;12233229;19;20023;-78
2022/06/18 14:42:57;;;;;;;3.67;1.70;;;38.50;27.80;;;37.47;23.37;100893.31;12239747;19;20017;-78
2022/06/18 14:47:48;;;;;;;5.00;1.80;;;38.50;27.70;;;37.48;23.11;100877.75;12239722;19;20026;-78
2022/06/18 14:52:05;;;;;;;6.80;1.42;;;38.50;27.60;;;37.39;23.10;100859.16;12241082;19;20014;-78
2022/06/18 14:56:58;;;;;;;7.38;2.13;;;38.50;27.70;;;37.48;23.41;100875.84;12234893;19;20352;-78
2022/06/18 15:02:01;;;;;;;3.13;1.60;;;38.50;27.60;;;37.46;23.07;100872.59;12239199;19;20109;-78
2022/06/18 15:06:09;;;;;;;6.10;1.70;;;38.50;27.80;;;37.41;22.99;100869.81;12239086;19;20395;-78
2022/06/18 15:10:31;;;;;;;3.35;2.28;;;38.50;27.70;;;37.37;22.96;100864.06;12232160;19;20014;-79
2022/06/18 15:14:39;;;;;;;7.10;1.88;;;38.50;27.70;;;37.38;22.82;100863.00;12217959;19;20010;-79
2022/06/18 15:18:56;;;;;;;3.92;1.80;;;38.50;27.70;;;37.42;23.10;100869.53;12239205;19;20021;-78
2022/06/18 15:23:02;;;;;;;4.32;2.03;;;38.50;27.50;;;37.27;22.84;100847.66;12242500;19;20018;-78
2022/06/18 15:27:04;;;;;;;8.60;1.77;;;38.50;27.50;;;37.37;22.92;100864.06;12236666;19;20022;-78
2022/06/18 15:31:31;;;;;;;6.93;2.38;;;38.50;27.40;;;37.35;22.66;100859.97;12218912;19;20018;-77
2022/06/18 15:35:33;;;;;;;8.52;2.42;;;38.40;27.70;;;37.34;22.79;100859.13;12218914;19;20563;-77
2022/06/18 15:40:13;;;;;;;6.25;2.10;;;38.40;27.40;;;37.36;22.64;100862.41;12225995;19;20011;-77
2022/06/18 15:44:31;;;;;;;7.55;1.80;;;38.40;27.50;;;37.31;22.93;100856.09;12225916;19;20014;-77
2022/06/18 15:48:40;;;;;;;5.05;1.55;;;38.40;27.70;;;37.35;22.73;100859.97;12221434;19;20431;-77
2022/06/18 15:52:44;;;;;;;4.13;1.70;;;38.40;27.60;;;37.18;22.80;100838.28;12224390;19;20030;-77
2022/06/18 15:56:50;;;;;;;4.75;1.85;;;38.40;27.60;;;37.20;23.08;100847.03;12221453;19;20558;-76
2022/06/18 16:00:53;;;;;;;6.93;2.10;;;38.30;27.80;;;37.24;23.03;100848.16;12225164;19;20018;-77
2022/06/18 16:04:56;;;;;;;4.78;1.92;;;38.30;27.70;;;37.18;22.94;100850.00;12218833;19;20015;-77
2022/06/18 16:09:13;;;;;;;5.40;2.23;;;38.30;27.70;;;37.14;22.96;100845.34;12213844;19;20641;-77
2022/06/18 16:13:26;;;;;;;4.13;2.13;;;38.20;27.60;;;37.01;22.79;100834.84;12220916;19;20515;-77
2022/06/18 16:17:32;;;;;;;3.22;1.70;;;38.20;27.80;;;36.90;23.23;100820.31;12221962;19;20022;-77
2022/06/18 16:21:56;;;;;;;3.22;1.63;;;38.10;27.80;;;36.96;23.21;100841.88;12220499;19;20050;-77
2022/06/18 16:25:59;;;;;;;6.93;1.90;;;38.00;27.80;;;36.89;23.05;100835.84;12221003;19;20018;-77
2022/06/18 16:30:37;;;;;;;4.38;2.25;;;38.00;27.90;;;36.84;23.23;100843.94;12220759;19;21017;-77
2022/06/18 16:34:45;;;;;;;9.00;2.70;;;38.00;27.90;;;36.80;23.23;100845.53;12221765;19;20488;-77
2022/06/18 16:38:49;;;;;;;7.38;1.90;;;37.90;27.90;;;36.71;23.05;100852.53;12221675;19;20033;-78
2022/06/18 16:42:51;;;;;;;4.35;2.33;;;37.90;27.90;;;36.63;23.12;100851.06;12223857;19;20025;-77
2022/06/18 16:46:53;;;;;;;6.90;2.50;;;37.80;27.90;;;36.44;23.34;100836.13;12219135;19;20138;-78
2022/06/18 16:50:55;;;;;;;6.90;2.60;;;37.70;28.00;;;36.45;23.19;100844.03;12223005;19;20035;-77
2022/06/18 16:55:01;;;;;;;7.15;2.78;;;37.70;28.00;;;36.42;23.36;100849.97;12221093;19;20026;-77
2022/06/18 16:59:08;;;;;;;4.90;2.20;;;37.60;28.10;;;36.35;23.46;100846.66;12221700;19;20014;-77
2022/06/18 17:03:10;;;;;;;4.00;1.85;;;37.50;28.10;;;36.27;23.53;100834.31;12220615;19;20389;-77
2022/06/18 17:07:13;;;;;;;7.18;2.05;;;37.50;28.20;;;36.01;23.60;100814.09;12219130;19;20045;-78
2022/06/18 17:11:15;;;;;;;18.08;2.90;;;37.40;28.10;;;36.10;23.94;100839.78;12211610;19;20667;-77
2022/06/18 17:15:18;;;;;;;4.40;1.73;;;37.30;28.20;;;36.00;23.82;100831.47;12218174;19;20014;-78
2022/06/18 17:19:20;;;;;;;5.43;1.80;;;37.20;28.30;;;35.77;24.00;100805.31;12217932;19;20010;-77
2022/06/18 17:23:36;;;;;;;4.22;2.20;;;37.20;28.30;;;35.89;23.90;100838.66;12206715;19;20522;-78
2022/06/18 17:31:58;;;;;;;7.22;2.80;;;37.00;28.40;;;35.70;24.25;100850.06;12215523;19;20007;-77
2022/06/18 17:36:01;;;;;;;3.63;2.42;;;37.00;28.50;;;35.51;24.44;100831.25;12217687;19;20022;-77
2022/06/18 17:40:04;;;;;;;6.43;2.50;;;36.90;28.50;;;35.57;24.64;100851.25;12223084;19;20102;-78
2022/06/18 17:44:06;;;;;;;7.55;2.10;;;36.80;28.80;;;35.44;24.78;100841.50;12217946;19;20018;-77
2022/06/18 17:48:19;;;;;;;6.07;2.70;;;36.70;28.90;;;35.35;24.73;100826.66;12215846;19;20023;-77